createdAt,value
2023-03-05T00:00:49.097Z,51.216045
2023-03-05T00:01:49.098Z,51.216053
2023-03-05T00:02:49.091Z,51.216148
2023-03-05T00:03:49.067Z,51.216270
2023-03-05T00:04:49.081Z,51.216209
2023-03-05T00:05:49.045Z,51.216171
2023-03-05T00:06:49.029Z,51.216175
2023-03-05T00:07:49.015Z,51.216187
2023-03-05T00:08:49.029Z,51.216171
2023-03-05T00:09:49.001Z,51.216259
2023-03-05T00:10:48.988Z,51.216213
2023-03-05T00:11:49.001Z,51.216103
2023-03-05T00:12:48.989Z,51.216099
2023-03-05T00:13:48.978Z,51.216091
2023-03-05T00:14:48.978Z,51.216087
2023-03-05T00:15:49.016Z,51.216148
2023-03-05T00:16:48.969Z,51.216000
2023-03-05T00:17:48.948Z,51.216003
2023-03-05T00:18:48.946Z,51.216225
2023-03-05T00:19:48.933Z,51.216145
2023-03-05T00:20:48.935Z,51.215984
2023-03-05T00:21:48.939Z,51.215973
2023-03-05T00:22:48.922Z,51.215862
2023-03-05T00:23:48.912Z,51.216103
2023-03-05T00:24:48.899Z,51.216057
2023-03-05T00:25:48.893Z,51.216030
2023-03-05T00:26:48.918Z,51.216114
2023-03-05T00:27:48.879Z,51.216087
2023-03-05T00:28:48.881Z,51.216167
2023-03-05T00:29:48.876Z,51.216331
2023-03-05T00:30:48.908Z,51.216320
2023-03-05T00:31:48.886Z,51.216286
2023-03-05T00:32:48.873Z,51.216209
2023-03-05T00:33:48.910Z,51.216095
2023-03-05T00:34:48.839Z,51.216137
2023-03-05T00:35:48.870Z,51.216125
2023-03-05T00:36:48.855Z,51.216225
2023-03-05T00:37:48.847Z,51.216270
2023-03-05T00:38:48.812Z,51.216011
2023-03-05T00:39:48.816Z,51.216007
2023-03-05T00:40:48.801Z,51.216034
2023-03-05T00:41:48.797Z,51.216057
2023-03-05T00:42:48.794Z,51.216206
2023-03-05T00:43:48.797Z,51.216282
2023-03-05T00:44:48.771Z,51.216209
2023-03-05T00:45:48.764Z,51.215992
2023-03-05T00:46:48.835Z,51.215981
2023-03-05T00:47:48.749Z,51.216030
2023-03-05T00:48:48.763Z,51.216045
2023-03-05T00:49:48.742Z,51.216228
2023-03-05T00:50:48.728Z,51.216072
2023-03-05T00:51:48.723Z,51.216064
2023-03-05T00:52:48.744Z,51.216290
2023-03-05T00:53:48.706Z,51.216003
2023-03-05T00:54:48.714Z,51.216000
2023-03-05T00:55:48.688Z,51.215992
2023-03-05T00:56:48.687Z,51.215958
2023-03-05T00:57:48.686Z,51.216087
2023-03-05T00:58:48.685Z,51.216026
2023-03-05T00:59:48.690Z,51.216049
2023-03-05T01:00:48.668Z,51.216068
2023-03-05T01:01:49.133Z,51.216038
2023-03-05T01:02:48.651Z,51.216076
2023-03-05T01:03:48.681Z,51.216118
2023-03-05T01:04:48.669Z,51.216087
2023-03-05T01:05:48.629Z,51.216133
2023-03-05T01:06:48.612Z,51.216179
2023-03-05T01:07:48.607Z,51.216137
2023-03-05T01:08:48.617Z,51.216110
2023-03-05T01:09:48.617Z,51.216167
2023-03-05T01:10:48.582Z,51.216164
2023-03-05T01:11:49.583Z,51.216141
2023-03-05T01:12:48.577Z,51.216148
2023-03-05T01:13:48.556Z,51.216236
2023-03-05T01:14:48.563Z,51.216137
2023-03-05T01:15:48.586Z,51.216133
2023-03-05T01:16:48.550Z,51.216133
2023-03-05T01:17:48.529Z,51.216045
2023-03-05T01:18:48.540Z,51.216068
2023-03-05T01:19:48.554Z,51.216091
2023-03-05T01:20:48.503Z,51.216221
2023-03-05T01:21:48.497Z,51.216152
2023-03-05T01:22:48.491Z,51.216290
2023-03-05T01:23:48.484Z,51.216228
2023-03-05T01:24:48.471Z,51.216232
2023-03-05T01:25:48.484Z,51.216183
2023-03-05T01:26:48.488Z,51.216160
2023-03-05T01:27:48.458Z,51.216175
2023-03-05T01:28:48.458Z,51.216183
2023-03-05T01:29:48.434Z,51.216187
2023-03-05T01:30:48.446Z,51.216190
2023-03-05T01:31:48.497Z,51.216190
2023-03-05T01:32:48.428Z,51.216133
2023-03-05T01:33:48.418Z,51.216080
2023-03-05T01:34:48.408Z,51.216068
2023-03-05T01:35:48.499Z,51.216129
2023-03-05T01:36:48.398Z,51.216133
2023-03-05T01:37:48.392Z,51.216236
2023-03-05T01:38:48.387Z,51.216274
2023-03-05T01:39:48.373Z,51.216125
2023-03-05T01:40:48.373Z,51.216095
2023-03-05T01:41:48.357Z,51.216038
2023-03-05T01:42:48.374Z,51.215942
2023-03-05T01:43:48.356Z,51.216072
2023-03-05T01:44:48.344Z,51.216034
2023-03-05T01:45:48.357Z,51.216034
2023-03-05T01:46:48.320Z,51.216003
2023-03-05T01:47:49.356Z,51.216007
2023-03-05T01:48:49.313Z,51.216003
2023-03-05T01:49:48.310Z,51.215946
2023-03-05T01:50:48.318Z,51.215931
2023-03-05T01:51:48.294Z,51.215866
2023-03-05T01:52:48.297Z,51.215981
2023-03-05T01:53:48.298Z,51.216034
2023-03-05T01:54:48.290Z,51.216068
2023-03-05T01:55:48.277Z,51.216103
2023-03-05T01:56:48.264Z,51.216133
2023-03-05T01:57:48.277Z,51.216141
2023-03-05T01:58:48.254Z,51.216187
2023-03-05T01:59:48.237Z,51.216099
2023-03-05T02:00:48.348Z,51.216095
2023-03-05T02:01:48.234Z,51.216019
2023-03-05T02:02:48.223Z,51.215965
2023-03-05T02:03:48.311Z,51.216118
2023-03-05T02:04:48.203Z,51.216167
2023-03-05T02:05:48.199Z,51.216259
2023-03-05T02:06:48.197Z,51.216248
2023-03-05T02:07:48.175Z,51.216217
2023-03-05T02:08:48.183Z,51.216187
2023-03-05T02:09:48.171Z,51.216118
2023-03-05T02:10:48.161Z,51.216068
2023-03-05T02:11:48.156Z,51.216068
2023-03-05T02:12:48.148Z,51.216137
2023-03-05T02:13:48.144Z,51.216091
2023-03-05T02:14:48.162Z,51.216038
2023-03-05T02:15:48.127Z,51.216053
2023-03-05T02:16:48.156Z,51.216034
2023-03-05T02:17:48.110Z,51.216026
2023-03-05T02:18:48.117Z,51.216003
2023-03-05T02:19:48.156Z,51.216087
2023-03-05T02:20:48.105Z,51.216061
2023-03-05T02:21:48.083Z,51.216061
2023-03-05T02:22:48.107Z,51.216190
2023-03-05T02:23:48.072Z,51.216179
2023-03-05T02:24:49.078Z,51.216183
2023-03-05T02:25:48.070Z,51.216152
2023-03-05T02:26:48.054Z,51.216122
2023-03-05T02:27:48.055Z,51.216122
2023-03-05T02:28:48.053Z,51.216122
2023-03-05T02:29:48.027Z,51.216125
2023-03-05T02:30:48.042Z,51.216187
2023-03-05T02:31:48.066Z,51.216145
2023-03-05T02:32:48.116Z,51.216122
2023-03-05T02:33:48.024Z,51.216156
2023-03-05T02:34:48.019Z,51.216125
2023-03-05T02:35:48.072Z,51.216045
2023-03-05T02:36:47.992Z,51.215927
2023-03-05T02:37:47.994Z,51.216030
2023-03-05T02:38:47.989Z,51.216080
2023-03-05T02:39:47.979Z,51.215996
2023-03-05T02:40:47.970Z,51.216000
2023-03-05T02:41:47.948Z,51.216129
2023-03-05T02:42:47.968Z,51.216061
2023-03-05T02:43:47.946Z,51.216042
2023-03-05T02:44:47.948Z,51.215996
2023-03-05T02:45:47.984Z,51.215847
2023-03-05T02:46:48.916Z,51.215893
2023-03-05T02:47:47.941Z,51.216053
2023-03-05T02:48:47.907Z,51.216080
2023-03-05T02:49:47.899Z,51.216148
2023-03-05T02:50:47.900Z,51.216125
2023-03-05T02:51:47.903Z,51.216187
2023-03-05T02:52:47.899Z,51.216202
2023-03-05T02:53:47.873Z,51.216049
2023-03-05T02:54:47.873Z,51.216091
2023-03-05T02:55:47.866Z,51.216141
2023-03-05T02:56:47.862Z,51.216160
2023-03-05T02:57:47.847Z,51.216068
2023-03-05T02:58:47.854Z,51.216084
2023-03-05T02:59:47.910Z,51.216091
2023-03-05T03:00:47.826Z,51.216145
2023-03-05T03:01:47.820Z,51.216129
2023-03-05T03:02:47.814Z,51.216099
2023-03-05T03:03:47.809Z,51.216122
2023-03-05T03:04:47.801Z,51.216103
2023-03-05T03:05:47.804Z,51.215946
2023-03-05T03:06:47.784Z,51.215954
2023-03-05T03:07:47.776Z,51.216007
2023-03-05T03:08:47.793Z,51.216099
2023-03-05T03:09:47.767Z,51.216114
2023-03-05T03:10:47.768Z,51.216122
2023-03-05T03:11:47.757Z,51.216099
2023-03-05T03:12:47.743Z,51.216141
2023-03-05T03:13:47.817Z,51.216129
2023-03-05T03:14:47.732Z,51.216141
2023-03-05T03:15:47.728Z,51.216179
2023-03-05T03:16:47.770Z,51.216038
2023-03-05T03:17:47.720Z,51.216042
2023-03-05T03:18:47.759Z,51.216064
2023-03-05T03:19:47.708Z,51.216072
2023-03-05T03:20:47.693Z,51.216171
2023-03-05T03:21:47.687Z,51.216099
2023-03-05T03:22:47.685Z,51.216091
2023-03-05T03:23:47.679Z,51.216057
2023-03-05T03:24:47.690Z,51.216053
2023-03-05T03:25:47.662Z,51.216133
2023-03-05T03:26:47.656Z,51.215992
2023-03-05T03:27:47.648Z,51.216030
2023-03-05T03:28:47.635Z,51.216110
2023-03-05T03:29:47.638Z,51.216064
2023-03-05T03:30:47.645Z,51.216148
2023-03-05T03:31:47.632Z,51.216145
2023-03-05T03:32:47.612Z,51.216137
2023-03-05T03:33:47.609Z,51.216187
2023-03-05T03:34:47.589Z,51.216179
2023-03-05T03:35:47.694Z,51.216160
2023-03-05T03:36:47.585Z,51.216183
2023-03-05T03:37:47.576Z,51.216145
2023-03-05T03:38:47.577Z,51.216122
2023-03-05T03:39:47.568Z,51.216160
2023-03-05T03:40:47.575Z,51.216064
2023-03-05T03:41:47.573Z,51.216030
2023-03-05T03:42:47.545Z,51.215965
2023-03-05T03:43:47.548Z,51.216091
2023-03-05T03:44:47.534Z,51.216206
2023-03-05T03:45:47.593Z,51.216179
2023-03-05T03:46:47.532Z,51.216072
2023-03-05T03:47:47.529Z,51.216049
2023-03-05T03:48:47.505Z,51.215984
2023-03-05T03:49:47.497Z,51.216133
2023-03-05T03:50:47.481Z,51.216026
2023-03-05T03:51:47.497Z,51.216057
2023-03-05T03:52:47.478Z,51.216122
2023-03-05T03:53:47.584Z,51.216087
2023-03-05T03:54:47.519Z,51.216228
2023-03-05T03:55:47.482Z,51.216198
2023-03-05T03:56:47.495Z,51.216072
2023-03-05T03:57:47.477Z,51.216190
2023-03-05T03:58:47.439Z,51.216209
2023-03-05T03:59:47.438Z,51.216133
2023-03-05T04:00:47.434Z,51.216259
2023-03-05T04:01:47.419Z,51.216213
2023-03-05T04:02:47.476Z,51.216213
2023-03-05T04:03:47.411Z,51.216183
2023-03-05T04:04:47.404Z,51.216198
2023-03-05T04:05:47.391Z,51.216213
2023-03-05T04:06:47.391Z,51.216137
2023-03-05T04:07:47.382Z,51.216160
2023-03-05T04:08:47.374Z,51.216167
2023-03-05T04:09:47.431Z,51.216125
2023-03-05T04:10:47.359Z,51.216099
2023-03-05T04:11:48.347Z,51.216156
2023-03-05T04:12:47.359Z,51.216122
2023-03-05T04:13:47.343Z,51.216221
2023-03-05T04:14:47.344Z,51.216141
2023-03-05T04:15:47.334Z,51.216194
2023-03-05T04:16:47.311Z,51.216167
2023-03-05T04:17:47.332Z,51.216171
2023-03-05T04:18:47.312Z,51.216114
2023-03-05T04:19:47.303Z,51.216171
2023-03-05T04:20:47.285Z,51.216263
2023-03-05T04:21:47.359Z,51.216263
2023-03-05T04:22:47.286Z,51.216213
2023-03-05T04:23:47.282Z,51.216187
2023-03-05T04:24:47.279Z,51.216194
2023-03-05T04:25:47.260Z,51.216152
2023-03-05T04:26:47.248Z,51.216167
2023-03-05T04:27:47.287Z,51.216217
2023-03-05T04:28:47.257Z,51.216232
2023-03-05T04:29:47.232Z,51.216190
2023-03-05T04:30:47.257Z,51.216133
2023-03-05T04:31:47.225Z,51.216190
2023-03-05T04:32:47.222Z,51.216148
2023-03-05T04:33:47.224Z,51.216152
2023-03-05T04:34:47.206Z,51.216187
2023-03-05T04:35:47.208Z,51.216232
2023-03-05T04:36:47.189Z,51.216103
2023-03-05T04:37:47.192Z,51.216179
2023-03-05T04:38:47.188Z,51.216125
2023-03-05T04:39:47.177Z,51.216061
2023-03-05T04:40:47.167Z,51.216099
2023-03-05T04:41:47.151Z,51.216198
2023-03-05T04:42:47.150Z,51.216026
2023-03-05T04:43:47.155Z,51.215828
2023-03-05T04:44:47.206Z,51.215954
2023-03-05T04:45:47.138Z,51.215996
2023-03-05T04:46:47.204Z,51.216026
2023-03-05T04:47:47.118Z,51.216217
2023-03-05T04:48:47.103Z,51.216076
2023-03-05T04:49:47.128Z,51.215988
2023-03-05T04:50:47.094Z,51.216015
2023-03-05T04:51:47.092Z,51.215942
2023-03-05T04:52:47.086Z,51.215935
2023-03-05T04:53:47.067Z,51.216019
2023-03-05T04:54:47.061Z,51.216072
2023-03-05T04:55:47.057Z,51.215988
2023-03-05T04:56:47.026Z,51.215969
2023-03-05T04:57:47.056Z,51.215923
2023-03-05T04:58:47.032Z,51.216064
2023-03-05T04:59:47.014Z,51.216080
2023-03-05T05:00:47.007Z,51.215996
2023-03-05T05:01:47.121Z,51.216068
2023-03-05T05:02:47.158Z,51.215916
2023-03-05T05:03:47.008Z,51.216087
2023-03-05T05:04:46.990Z,51.215828
2023-03-05T05:05:47.013Z,51.215919
2023-03-05T05:06:46.990Z,51.215851
2023-03-05T05:07:46.984Z,51.215988
2023-03-05T05:08:47.010Z,51.216015
2023-03-05T05:09:46.997Z,51.215935
2023-03-05T05:10:47.007Z,51.215950
2023-03-05T05:11:46.950Z,51.215675
2023-03-05T05:12:46.966Z,51.215805
2023-03-05T05:13:46.943Z,51.215958
2023-03-05T05:14:46.922Z,51.216030
2023-03-05T05:15:46.917Z,51.215912
2023-03-05T05:16:46.911Z,51.215824
2023-03-05T05:17:46.911Z,51.215775
2023-03-05T05:18:46.898Z,51.216042
2023-03-05T05:19:46.888Z,51.216072
2023-03-05T05:20:46.865Z,51.216248
2023-03-05T05:21:46.882Z,51.215946
2023-03-05T05:22:46.880Z,51.215942
2023-03-05T05:23:46.853Z,51.216049
2023-03-05T05:24:46.862Z,51.216290
2023-03-05T05:25:46.850Z,51.216129
2023-03-05T05:26:46.840Z,51.216106
2023-03-05T05:27:46.841Z,51.216080
2023-03-05T05:28:46.841Z,51.216064
2023-03-05T05:29:46.821Z,51.216087
2023-03-05T05:30:46.825Z,51.216068
2023-03-05T05:31:46.852Z,51.216019
2023-03-05T05:32:46.818Z,51.216061
2023-03-05T05:33:49.582Z,51.216114
2023-03-05T05:34:46.791Z,51.216038
2023-03-05T05:35:46.857Z,51.216118
2023-03-05T05:36:46.776Z,51.216167
2023-03-05T05:37:46.783Z,51.216103
2023-03-05T05:38:46.768Z,51.215958
2023-03-05T05:39:46.754Z,51.216080
2023-03-05T05:40:46.756Z,51.216015
2023-03-05T05:41:46.745Z,51.216141
2023-03-05T05:42:46.733Z,51.216064
2023-03-05T05:43:46.736Z,51.216125
2023-03-05T05:44:46.718Z,51.216148
2023-03-05T05:45:47.874Z,51.216064
2023-03-05T05:46:46.755Z,51.216114
2023-03-05T05:47:46.704Z,51.216129
2023-03-05T05:48:46.723Z,51.216064
2023-03-05T05:49:46.698Z,51.216049
2023-03-05T05:50:46.689Z,51.216064
2023-03-05T05:51:46.679Z,51.216145
2023-03-05T05:52:46.676Z,51.215939
2023-03-05T05:53:46.688Z,51.215973
2023-03-05T05:54:46.661Z,51.215996
2023-03-05T05:55:46.652Z,51.216110
2023-03-05T05:56:46.641Z,51.216118
2023-03-05T05:57:46.634Z,51.216099
2023-03-05T05:58:46.636Z,51.216103
2023-03-05T05:59:46.637Z,51.216114
2023-03-05T06:00:46.627Z,51.216125
2023-03-05T06:01:46.636Z,51.216171
2023-03-05T06:02:46.646Z,51.216232
2023-03-05T06:03:46.590Z,51.216209
2023-03-05T06:04:46.606Z,51.216167
2023-03-05T06:05:46.589Z,51.216038
2023-03-05T06:06:46.578Z,51.216030
2023-03-05T06:07:46.555Z,51.216049
2023-03-05T06:08:46.586Z,51.216133
2023-03-05T06:09:46.565Z,51.216087
2023-03-05T06:10:46.543Z,51.216133
2023-03-05T06:11:46.541Z,51.216148
2023-03-05T06:12:46.538Z,51.216145
2023-03-05T06:13:46.539Z,51.216225
2023-03-05T06:14:46.530Z,51.216293
2023-03-05T06:15:46.523Z,51.216244
2023-03-05T06:16:46.528Z,51.216183
2023-03-05T06:17:46.528Z,51.216122
2023-03-05T06:18:46.501Z,51.216122
2023-03-05T06:19:46.496Z,51.216251
2023-03-05T06:20:46.498Z,51.216171
2023-03-05T06:21:46.483Z,51.216015
2023-03-05T06:22:46.475Z,51.215900
2023-03-05T06:23:46.468Z,51.215897
2023-03-05T06:24:46.472Z,51.215958
2023-03-05T06:25:46.452Z,51.215939
2023-03-05T06:26:46.462Z,51.215927
2023-03-05T06:27:46.441Z,51.216015
2023-03-05T06:28:46.438Z,51.216179
2023-03-05T06:29:46.428Z,51.216148
2023-03-05T06:30:46.535Z,51.216286
2023-03-05T06:31:46.437Z,51.216358
2023-03-05T06:32:46.404Z,51.216164
2023-03-05T06:33:46.387Z,51.216282
2023-03-05T06:34:46.382Z,51.216118
2023-03-05T06:35:46.456Z,51.216270
2023-03-05T06:36:46.372Z,51.216221
2023-03-05T06:37:46.374Z,51.216286
2023-03-05T06:38:48.400Z,51.216179
2023-03-05T06:39:46.360Z,51.216095
2023-03-05T06:40:46.452Z,51.216011
2023-03-05T06:41:46.347Z,51.216183
2023-03-05T06:42:46.327Z,51.215950
2023-03-05T06:43:46.317Z,51.216095
2023-03-05T06:44:48.361Z,51.216084
2023-03-05T06:45:47.370Z,51.216148
2023-03-05T06:46:46.319Z,51.216217
2023-03-05T06:47:46.299Z,51.216228
2023-03-05T06:48:46.290Z,51.216087
2023-03-05T06:49:46.283Z,51.215836
2023-03-05T06:50:46.278Z,51.216122
2023-03-05T06:51:46.283Z,51.216087
2023-03-05T06:52:46.266Z,51.215935
2023-03-05T06:53:48.312Z,51.216171
2023-03-05T06:54:46.241Z,51.216209
2023-03-05T06:55:46.242Z,51.216221
2023-03-05T06:56:46.240Z,51.216167
2023-03-05T06:57:46.246Z,51.215981
2023-03-05T06:58:46.298Z,51.216122
2023-03-05T06:59:46.220Z,51.216038
2023-03-05T07:00:46.207Z,51.216011
2023-03-05T07:01:46.211Z,51.216072
2023-03-05T07:02:46.271Z,51.216095
2023-03-05T07:03:46.176Z,51.215961
2023-03-05T07:04:46.188Z,51.215919
2023-03-05T07:05:46.180Z,51.215988
2023-03-05T07:06:46.173Z,51.215977
2023-03-05T07:07:46.163Z,51.216072
2023-03-05T07:08:46.188Z,51.215984
2023-03-05T07:09:46.156Z,51.215782
2023-03-05T07:10:46.141Z,51.216000
2023-03-05T07:11:46.135Z,51.216221
2023-03-05T07:12:46.126Z,51.216263
2023-03-05T07:13:46.146Z,51.216164
2023-03-05T07:14:46.115Z,51.216175
2023-03-05T07:15:46.121Z,51.216003
2023-03-05T07:16:46.095Z,51.215923
2023-03-05T07:17:46.090Z,51.216049
2023-03-05T07:18:46.084Z,51.216042
2023-03-05T07:19:46.084Z,51.216164
2023-03-05T07:20:46.132Z,51.216091
2023-03-05T07:21:46.067Z,51.216122
2023-03-05T07:22:46.056Z,51.216167
2023-03-05T07:23:46.046Z,51.216148
2023-03-05T07:24:46.067Z,51.216148
2023-03-05T07:25:46.046Z,51.216137
2023-03-05T07:26:47.942Z,51.216202
2023-03-05T07:27:46.063Z,51.216198
2023-03-05T07:28:46.043Z,51.216164
2023-03-05T07:29:46.011Z,51.216175
2023-03-05T07:30:46.108Z,51.216103
2023-03-05T07:31:46.018Z,51.216194
2023-03-05T07:32:45.994Z,51.216179
2023-03-05T07:33:45.996Z,51.216152
2023-03-05T07:34:45.981Z,51.216122
2023-03-05T07:35:46.009Z,51.216164
2023-03-05T07:36:45.988Z,51.216152
2023-03-05T07:37:45.965Z,51.216110
2023-03-05T07:38:45.957Z,51.216053
2023-03-05T07:39:47.264Z,51.215984
2023-03-05T07:40:46.943Z,51.216110
2023-03-05T07:41:45.935Z,51.216141
2023-03-05T07:42:45.939Z,51.216137
2023-03-05T07:43:45.907Z,51.216034
2023-03-05T07:44:45.913Z,51.216118
2023-03-05T07:45:45.950Z,51.216114
2023-03-05T07:46:45.897Z,51.216118
2023-03-05T07:47:45.904Z,51.216057
2023-03-05T07:48:45.895Z,51.216087
2023-03-05T07:49:45.880Z,51.216187
2023-03-05T07:50:45.889Z,51.216053
2023-03-05T07:51:45.881Z,51.215931
2023-03-05T07:52:45.849Z,51.215939
2023-03-05T07:53:45.858Z,51.216000
2023-03-05T07:54:45.837Z,51.216003
2023-03-05T07:55:45.845Z,51.216125
2023-03-05T07:56:45.840Z,51.216137
2023-03-05T07:57:45.842Z,51.216095
2023-03-05T07:58:45.811Z,51.216118
2023-03-05T07:59:45.810Z,51.216160
2023-03-05T08:00:45.812Z,51.216194
2023-03-05T08:01:45.813Z,51.216190
2023-03-05T08:02:45.810Z,51.216114
2023-03-05T08:03:45.827Z,51.216118
2023-03-05T08:04:45.780Z,51.216080
2023-03-05T08:05:46.146Z,51.215992
2023-03-05T08:06:45.816Z,51.215996
2023-03-05T08:07:45.746Z,51.216011
2023-03-05T08:08:45.755Z,51.216137
2023-03-05T08:09:45.749Z,51.216171
2023-03-05T08:10:45.724Z,51.216030
2023-03-05T08:11:45.728Z,51.216053
2023-03-05T08:12:45.729Z,51.216087
2023-03-05T08:13:45.723Z,51.216000
2023-03-05T08:14:45.734Z,51.215900
2023-03-05T08:15:45.732Z,51.216003
2023-03-05T08:16:47.880Z,51.216137
2023-03-05T08:17:46.690Z,51.216167
2023-03-05T08:18:45.676Z,51.216156
2023-03-05T08:19:45.688Z,51.216125
2023-03-05T08:20:45.664Z,51.216148
2023-03-05T08:21:45.663Z,51.216141
2023-03-05T08:22:45.679Z,51.216183
2023-03-05T08:23:45.685Z,51.216251
2023-03-05T08:24:45.645Z,51.216309
2023-03-05T08:25:45.639Z,51.216297
2023-03-05T08:26:45.637Z,51.216194
2023-03-05T08:27:45.630Z,51.216148
2023-03-05T08:28:45.631Z,51.216156
2023-03-05T08:29:45.617Z,51.216228
2023-03-05T08:30:45.600Z,51.216190
2023-03-05T08:31:45.599Z,51.216156
2023-03-05T08:32:45.602Z,51.216156
2023-03-05T08:33:45.584Z,51.216206
2023-03-05T08:34:45.594Z,51.216187
2023-03-05T08:35:45.602Z,51.216152
2023-03-05T08:36:45.558Z,51.216171
2023-03-05T08:37:45.559Z,51.216118
2023-03-05T08:38:45.551Z,51.216129
2023-03-05T08:39:45.600Z,51.216076
2023-03-05T08:40:45.539Z,51.216087
2023-03-05T08:41:45.535Z,51.216068
2023-03-05T08:42:45.520Z,51.216110
2023-03-05T08:43:45.521Z,51.216171
2023-03-05T08:44:45.524Z,51.216156
2023-03-05T08:45:45.511Z,51.216118
2023-03-05T08:46:45.582Z,51.216156
2023-03-05T08:47:45.496Z,51.216114
2023-03-05T08:48:45.500Z,51.216133
2023-03-05T08:49:45.483Z,51.215981
2023-03-05T08:50:45.472Z,51.215904
2023-03-05T08:51:45.467Z,51.215958
2023-03-05T08:52:45.469Z,51.216091
2023-03-05T08:53:45.454Z,51.216091
2023-03-05T08:54:45.453Z,51.216106
2023-03-05T08:55:45.452Z,51.216057
2023-03-05T08:56:45.436Z,51.215992
2023-03-05T08:57:45.449Z,51.216022
2023-03-05T08:58:45.430Z,51.216045
2023-03-05T08:59:46.415Z,51.216095
2023-03-05T09:00:45.412Z,51.216099
2023-03-05T09:01:45.507Z,51.216087
2023-03-05T09:02:45.429Z,51.216133
2023-03-05T09:03:45.397Z,51.216198
2023-03-05T09:04:45.386Z,51.216148
2023-03-05T09:05:45.367Z,51.216049
2023-03-05T09:06:46.402Z,51.216053
2023-03-05T09:07:45.352Z,51.216068
2023-03-05T09:08:45.364Z,51.216148
2023-03-05T09:09:45.344Z,51.216160
2023-03-05T09:10:45.342Z,51.216156
2023-03-05T09:11:45.334Z,51.216084
2023-03-05T09:12:45.323Z,51.216129
2023-03-05T09:13:45.326Z,51.216114
2023-03-05T09:14:45.309Z,51.216110
2023-03-05T09:15:45.311Z,51.216110
2023-03-05T09:16:45.367Z,51.216129
2023-03-05T09:17:45.289Z,51.216110
2023-03-05T09:18:45.291Z,51.216148
2023-03-05T09:19:45.276Z,51.216194
2023-03-05T09:20:45.268Z,51.216137
2023-03-05T09:21:45.263Z,51.216084
2023-03-05T09:22:45.244Z,51.216167
2023-03-05T09:23:45.246Z,51.216022
2023-03-05T09:24:45.243Z,51.216030
2023-03-05T09:25:45.215Z,51.216057
2023-03-05T09:26:45.246Z,51.216171
2023-03-05T09:27:45.218Z,51.216156
2023-03-05T09:28:45.210Z,51.216167
2023-03-05T09:29:45.209Z,51.216053
2023-03-05T09:30:45.201Z,51.216026
2023-03-05T09:31:45.248Z,51.216114
2023-03-05T09:32:45.201Z,51.216114
2023-03-05T09:33:45.177Z,51.216129
2023-03-05T09:34:45.158Z,51.216095
2023-03-05T09:35:45.199Z,51.215961
2023-03-05T09:36:45.164Z,51.216049
2023-03-05T09:37:45.148Z,51.216026
2023-03-05T09:38:45.137Z,51.216114
2023-03-05T09:39:45.133Z,51.215950
2023-03-05T09:40:45.137Z,51.215927
2023-03-05T09:41:45.106Z,51.216000
2023-03-05T09:42:45.189Z,51.215969
2023-03-05T09:43:45.099Z,51.215874
2023-03-05T09:44:45.150Z,51.215775
2023-03-05T09:45:45.131Z,51.215878
2023-03-05T09:46:45.082Z,51.215954
2023-03-05T09:47:45.099Z,51.216049
2023-03-05T09:48:45.077Z,51.216057
2023-03-05T09:49:45.057Z,51.216122
2023-03-05T09:50:45.057Z,51.216122
2023-03-05T09:51:45.063Z,51.216076
2023-03-05T09:52:45.070Z,51.216022
2023-03-05T09:53:45.048Z,51.216026
2023-03-05T09:54:45.035Z,51.216095
2023-03-05T09:55:45.031Z,51.216167
2023-03-05T09:56:45.007Z,51.216084
2023-03-05T09:57:45.011Z,51.216045
2023-03-05T09:58:45.006Z,51.216087
2023-03-05T09:59:45.007Z,51.216171
2023-03-05T10:00:44.987Z,51.216080
2023-03-05T10:01:44.973Z,51.215866
2023-03-05T10:02:45.007Z,51.215950
2023-03-05T10:03:44.979Z,51.215984
2023-03-05T10:04:44.980Z,51.216068
2023-03-05T10:05:44.947Z,51.216076
2023-03-05T10:06:44.949Z,51.216080
2023-03-05T10:07:44.937Z,51.216156
2023-03-05T10:08:44.925Z,51.216053
2023-03-05T10:09:44.969Z,51.215992
2023-03-05T10:10:44.926Z,51.215935
2023-03-05T10:11:44.908Z,51.216034
2023-03-05T10:12:45.900Z,51.216091
2023-03-05T10:13:44.884Z,51.216011
2023-03-05T10:14:44.901Z,51.215996
2023-03-05T10:15:44.877Z,51.215832
2023-03-05T10:16:44.889Z,51.216030
2023-03-05T10:17:44.882Z,51.216228
2023-03-05T10:18:44.861Z,51.216160
2023-03-05T10:19:44.860Z,51.216217
2023-03-05T10:20:44.853Z,51.216110
2023-03-05T10:21:44.857Z,51.216148
2023-03-05T10:22:44.831Z,51.216087
2023-03-05T10:23:44.826Z,51.216129
2023-03-05T10:24:44.836Z,51.216106
2023-03-05T10:25:44.827Z,51.216114
2023-03-05T10:26:44.799Z,51.216148
2023-03-05T10:27:45.797Z,51.216160
2023-03-05T10:28:44.794Z,51.216152
2023-03-05T10:29:44.780Z,51.216076
2023-03-05T10:30:44.778Z,51.216045
2023-03-05T10:31:44.884Z,51.216022
2023-03-05T10:32:44.790Z,51.216068
2023-03-05T10:33:44.755Z,51.216099
2023-03-05T10:34:44.752Z,51.216213
2023-03-05T10:35:44.780Z,51.216179
2023-03-05T10:36:44.732Z,51.216156
2023-03-05T10:37:44.738Z,51.216122
2023-03-05T10:38:44.861Z,51.216026
2023-03-05T10:39:44.793Z,51.216049
2023-03-05T10:40:44.705Z,51.216087
2023-03-05T10:41:44.701Z,51.216091
2023-03-05T10:42:44.684Z,51.216106
2023-03-05T10:43:44.693Z,51.216087
2023-03-05T10:44:44.684Z,51.216087
2023-03-05T10:45:44.763Z,51.216099
2023-03-05T10:46:44.668Z,51.216141
2023-03-05T10:47:44.656Z,51.216122
2023-03-05T10:48:44.678Z,51.216175
2023-03-05T10:49:44.645Z,51.216152
2023-03-05T10:50:44.645Z,51.216206
2023-03-05T10:51:44.660Z,51.216106
2023-03-05T10:52:44.621Z,51.216106
2023-03-05T10:53:44.613Z,51.216099
2023-03-05T10:54:44.612Z,51.216072
2023-03-05T10:55:44.608Z,51.216049
2023-03-05T10:56:44.602Z,51.216145
2023-03-05T10:57:44.601Z,51.216190
2023-03-05T10:58:44.591Z,51.216129
2023-03-05T10:59:44.578Z,51.216118
2023-03-05T11:00:44.591Z,51.216076
2023-03-05T11:01:44.577Z,51.216064
2023-03-05T11:02:44.633Z,51.216118
2023-03-05T11:03:45.548Z,51.216129
2023-03-05T11:04:44.565Z,51.216152
2023-03-05T11:05:44.547Z,51.216064
2023-03-05T11:06:44.541Z,51.216076
2023-03-05T11:07:44.513Z,51.216099
2023-03-05T11:08:44.509Z,51.216053
2023-03-05T11:09:44.502Z,51.216095
2023-03-05T11:10:44.513Z,51.216068
2023-03-05T11:11:44.496Z,51.216045
2023-03-05T11:12:44.469Z,51.216038
2023-03-05T11:13:44.501Z,51.216034
2023-03-05T11:14:44.471Z,51.216030
2023-03-05T11:15:44.483Z,51.216022
2023-03-05T11:16:44.448Z,51.216137
2023-03-05T11:17:44.443Z,51.216141
2023-03-05T11:18:44.467Z,51.216156
2023-03-05T11:19:44.432Z,51.216038
2023-03-05T11:20:44.420Z,51.216007
2023-03-05T11:21:44.413Z,51.215961
2023-03-05T11:22:44.398Z,51.215961
2023-03-05T11:23:44.395Z,51.216148
2023-03-05T11:24:44.416Z,51.216034